Time,TemperatureF,DewpointF,PressureIn,WindDirection,WindDirectionDegrees,WindSpeedMPH,WindSpeedGustMPH,Humidity,HourlyPrecipIn,Conditions,Clouds,dailyrainin,SoftwareType,DateUTC
2013-01-27 00:12:00,31.0,25.0,30.36,ENE,67,2.0,5.0,77,0.00,,,0.00,,2013-01-27 05:12:00,
2013-01-27 00:22:00,29.0,23.0,30.38,ENE,68,1.0,4.0,78,0.00,,,0.00,,2013-01-27 05:22:00,
2013-01-27 00:32:00,30.0,23.0,30.39,NE,44,5.0,8.0,76,0.00,,,0.00,,2013-01-27 05:32:00,
2013-01-27 00:42:00,30.0,23.0,30.39,NE,44,5.0,8.0,76,0.00,,,0.00,,2013-01-27 05:42:00,
2013-01-27 00:52:00,29.0,22.0,30.40,NE,46,1.0,3.0,76,0.00,,,0.00,,2013-01-27 05:52:00,
2013-01-27 01:02:00,28.0,22.0,30.40,NE,38,1.0,3.0,79,0.00,,,0.00,,2013-01-27 06:02:00,
2013-01-27 01:11:00,28.0,22.0,30.40,NE,38,1.0,3.0,79,0.00,,,0.00,,2013-01-27 06:11:00,
2013-01-27 01:21:00,28.0,22.0,30.40,NNE,12,0.0,2.0,78,0.00,,,0.00,,2013-01-27 06:21:00,
2013-01-27 01:32:00,28.0,22.0,30.40,ENE,72,2.0,5.0,78,0.00,,,0.00,,2013-01-27 06:32:00,
2013-01-27 01:42:00,28.0,22.0,30.40,ENE,72,2.0,5.0,78,0.00,,,0.00,,2013-01-27 06:42:00,
2013-01-27 01:52:00,29.0,23.0,30.40,NE,49,1.0,2.0,77,0.00,,,0.00,,2013-01-27 06:52:00,
2013-01-27 02:01:00,29.0,22.0,30.42,ENE,69,2.0,4.0,76,0.00,,,0.00,,2013-01-27 07:01:00,
2013-01-27 02:14:00,29.0,22.0,30.42,ENE,69,2.0,4.0,76,0.00,,,0.00,,2013-01-27 07:14:00,
2013-01-27 02:21:00,28.0,21.0,30.42,ENE,61,1.0,3.0,76,0.00,,,0.00,,2013-01-27 07:21:00,
2013-01-27 02:32:00,28.0,22.0,30.43,ENE,61,1.0,3.0,77,0.00,,,0.00,,2013-01-27 07:32:00,
2013-01-27 02:42:00,28.0,22.0,30.43,ENE,61,1.0,3.0,77,0.00,,,0.00,,2013-01-27 07:42:00,
2013-01-27 02:52:00,28.0,22.0,30.43,ENE,76,1.0,3.0,77,0.00,,,0.00,,2013-01-27 07:52:00,
2013-01-27 03:01:00,27.0,21.0,30.42,ENE,61,0.0,3.0,78,0.00,,,0.00,,2013-01-27 08:01:00,
2013-01-27 03:11:00,27.0,21.0,30.42,ENE,61,0.0,3.0,78,0.00,,,0.00,,2013-01-27 08:11:00,
2013-01-27 03:22:00,27.0,21.0,30.43,ENE,63,0.0,3.0,79,0.00,,,0.00,,2013-01-27 08:22:00,
2013-01-27 03:32:00,26.0,21.0,30.44,ENE,63,0.0,1.0,82,0.00,,,0.00,,2013-01-27 08:32:00,
2013-01-27 03:42:00,26.0,21.0,30.44,ENE,63,0.0,1.0,82,0.00,,,0.00,,2013-01-27 08:42:00,
2013-01-27 03:52:00,26.0,21.0,30.44,ENE,63,0.0,2.0,82,0.00,,,0.00,,2013-01-27 08:52:00,
2013-01-27 04:03:00,26.0,21.0,30.44,ENE,63,2.0,3.0,81,0.00,,,0.00,,2013-01-27 09:03:00,
2013-01-27 04:11:00,26.0,21.0,30.44,ENE,63,2.0,3.0,81,0.00,,,0.00,,2013-01-27 09:11:00,
2013-01-27 04:21:00,26.0,21.0,30.44,ENE,63,0.0,2.0,81,0.00,,,0.00,,2013-01-27 09:21:00,
2013-01-27 04:32:00,26.0,21.0,30.44,ENE,63,0.0,2.0,81,0.00,,,0.00,,2013-01-27 09:32:00,
2013-01-27 04:41:00,26.0,21.0,30.44,ENE,63,0.0,2.0,81,0.00,,,0.00,,2013-01-27 09:41:00,
2013-01-27 04:51:00,26.0,21.0,30.44,ENE,63,0.0,2.0,81,0.00,,,0.00,,2013-01-27 09:51:00,
2013-01-27 05:11:00,24.0,20.0,30.44,ENE,67,0.0,1.0,84,0.00,,,0.00,,2013-01-27 10:11:00,
2013-01-27 05:21:00,24.0,20.0,30.44,ENE,67,0.0,1.0,84,0.00,,,0.00,,2013-01-27 10:21:00,
2013-01-27 05:32:00,24.0,20.0,30.45,ENE,67,0.0,0.0,84,0.00,,,0.00,,2013-01-27 10:32:00,
2013-01-27 05:42:00,24.0,20.0,30.45,ENE,67,0.0,0.0,84,0.00,,,0.00,,2013-01-27 10:42:00,
2013-01-27 05:52:00,23.0,19.0,30.45,ENE,67,0.0,0.0,85,0.00,,,0.00,,2013-01-27 10:52:00,
2013-01-27 06:01:00,23.0,19.0,30.45,ENE,67,0.0,0.0,86,0.00,,,0.00,,2013-01-27 11:01:00,
2013-01-27 06:11:00,22.0,19.0,30.45,ENE,67,0.0,0.0,87,0.00,,,0.00,,2013-01-27 11:11:00,
2013-01-27 06:21:00,22.0,19.0,30.45,ENE,67,0.0,0.0,87,0.00,,,0.00,,2013-01-27 11:21:00,
2013-01-27 06:32:00,22.0,19.0,30.45,ENE,67,0.0,0.0,87,0.00,,,0.00,,2013-01-27 11:32:00,
2013-01-27 06:42:00,22.0,19.0,30.45,ENE,67,0.0,0.0,87,0.00,,,0.00,,2013-01-27 11:42:00,
2013-01-27 06:52:00,22.0,19.0,30.46,ENE,67,0.0,0.0,88,0.00,,,0.00,,2013-01-27 11:52:00,
2013-01-27 07:02:00,22.0,19.0,30.47,ENE,67,0.0,0.0,89,0.00,,,0.00,,2013-01-27 12:02:00,
2013-01-27 07:12:00,22.0,19.0,30.47,ENE,67,0.0,0.0,89,0.00,,,0.00,,2013-01-27 12:12:00,
2013-01-27 07:22:00,22.0,19.0,30.48,ENE,67,0.0,0.0,89,0.00,,,0.00,,2013-01-27 12:22:00,
2013-01-27 07:32:00,22.0,19.0,30.49,ENE,67,0.0,0.0,88,0.00,,,0.00,,2013-01-27 12:32:00,
2013-01-27 07:42:00,22.0,19.0,30.49,ENE,67,0.0,0.0,88,0.00,,,0.00,,2013-01-27 12:42:00,
2013-01-27 07:52:00,22.0,19.0,30.50,ENE,67,0.0,0.0,88,0.00,,,0.00,,2013-01-27 12:52:00,
2013-01-27 08:02:00,22.0,19.0,30.50,ENE,67,0.0,0.0,88,0.00,,,0.00,,2013-01-27 13:02:00,
2013-01-27 08:11:00,22.0,19.0,30.50,ENE,67,0.0,0.0,88,0.00,,,0.00,,2013-01-27 13:11:00,
2013-01-27 08:22:00,23.0,20.0,30.51,ENE,67,0.0,0.0,89,0.00,,,0.00,,2013-01-27 13:22:00,
2013-01-27 08:32:00,23.0,20.0,30.51,ENE,67,0.0,0.0,89,0.00,,,0.00,,2013-01-27 13:32:00,
2013-01-27 08:42:00,23.0,20.0,30.51,ENE,67,0.0,0.0,89,0.00,,,0.00,,2013-01-27 13:42:00,
2013-01-27 08:52:00,23.0,20.0,30.51,ENE,67,0.0,0.0,89,0.00,,,0.00,,2013-01-27 13:52:00,
2013-01-27 09:02:00,23.0,20.0,30.51,ENE,67,0.0,0.0,89,0.00,,,0.00,,2013-01-27 14:02:00,
2013-01-27 09:22:00,29.0,24.0,30.54,ENE,67,1.0,3.0,80,0.00,,,0.00,,2013-01-27 14:22:00,
2013-01-27 09:33:00,31.0,24.0,30.55,ENE,63,3.0,5.0,74,0.00,,,0.00,,2013-01-27 14:33:00,
2013-01-27 09:43:00,31.0,24.0,30.55,ENE,63,3.0,5.0,74,0.00,,,0.00,,2013-01-27 14:43:00,
2013-01-27 09:53:00,31.0,24.0,30.55,NE,39,3.0,5.0,74,0.00,,,0.00,,2013-01-27 14:53:00,
2013-01-27 10:02:00,30.0,23.0,30.56,ENE,74,2.0,9.0,75,0.00,,,0.00,,2013-01-27 15:02:00,
2013-01-27 10:12:00,30.0,23.0,30.56,ENE,74,2.0,9.0,75,0.00,,,0.00,,2013-01-27 15:12:00,
2013-01-27 10:22:00,30.0,23.0,30.57,ESE,115,7.0,9.0,75,0.00,,,0.00,,2013-01-27 15:22:00,
2013-01-27 10:32:00,31.0,24.0,30.57,East,93,6.0,10.0,75,0.00,,,0.00,,2013-01-27 15:32:00,
2013-01-27 10:42:00,31.0,24.0,30.57,East,93,6.0,10.0,75,0.00,,,0.00,,2013-01-27 15:42:00,
2013-01-27 10:52:00,31.0,24.0,30.57,ENE,57,6.0,10.0,74,0.00,,,0.00,,2013-01-27 15:52:00,
2013-01-27 11:03:00,32.0,25.0,30.57,SE,138,5.0,10.0,74,0.00,,,0.00,,2013-01-27 16:03:00,
2013-01-27 11:12:00,32.0,25.0,30.57,SE,138,5.0,10.0,74,0.00,,,0.00,,2013-01-27 16:12:00,
2013-01-27 11:22:00,33.0,25.0,30.57,SE,126,3.0,6.0,73,0.01,,,0.01,,2013-01-27 16:22:00,
2013-01-27 11:32:00,33.0,25.0,30.57,East,80,4.0,7.0,73,0.01,,,0.01,,2013-01-27 16:32:00,
2013-01-27 11:42:00,33.0,25.0,30.57,East,80,4.0,7.0,73,0.01,,,0.01,,2013-01-27 16:42:00,
2013-01-27 11:53:00,33.0,25.0,30.56,SW,217,1.0,9.0,71,0.01,,,0.01,,2013-01-27 16:53:00,
2013-01-27 12:02:00,33.0,25.0,30.56,SE,124,5.0,8.0,72,0.01,,,0.01,,2013-01-27 17:02:00,
2013-01-27 12:12:00,33.0,25.0,30.56,SE,124,5.0,8.0,72,0.01,,,0.01,,2013-01-27 17:12:00,
2013-01-27 12:22:00,33.0,25.0,30.53,East,98,2.0,5.0,72,0.00,,,0.01,,2013-01-27 17:22:00,
2013-01-27 12:32:00,34.0,26.0,30.53,NNW,333,2.0,4.0,73,0.00,,,0.01,,2013-01-27 17:32:00,
2013-01-27 12:42:00,34.0,26.0,30.53,NNW,333,2.0,4.0,73,0.00,,,0.01,,2013-01-27 17:42:00,
2013-01-27 12:53:00,35.0,26.0,30.53,South,178,3.0,8.0,70,0.00,,,0.01,,2013-01-27 17:53:00,
2013-01-27 13:02:00,35.0,26.0,30.54,SSE,159,2.0,7.0,69,0.00,,,0.01,,2013-01-27 18:02:00,
2013-01-27 13:12:00,35.0,26.0,30.54,SSE,159,2.0,7.0,69,0.00,,,0.01,,2013-01-27 18:12:00,
2013-01-27 13:22:00,36.0,27.0,30.52,East,92,2.0,4.0,70,0.00,,,0.01,,2013-01-27 18:22:00,
2013-01-27 13:32:00,36.0,26.0,30.52,SW,225,6.0,10.0,67,0.00,,,0.01,,2013-01-27 18:32:00,
2013-01-27 13:42:00,36.0,26.0,30.52,SW,225,6.0,10.0,67,0.00,,,0.01,,2013-01-27 18:42:00,
2013-01-27 13:53:00,36.0,26.0,30.51,West,260,2.0,6.0,68,0.00,,,0.01,,2013-01-27 18:53:00,
2013-01-27 14:02:00,37.0,27.0,30.51,SW,236,3.0,8.0,68,0.00,,,0.01,,2013-01-27 19:02:00,
2013-01-27 14:12:00,37.0,27.0,30.51,SW,236,3.0,8.0,68,0.00,,,0.01,,2013-01-27 19:12:00,
2013-01-27 14:22:00,38.0,28.0,30.51,WSW,240,4.0,8.0,66,0.00,,,0.01,,2013-01-27 19:22:00,
2013-01-27 14:32:00,38.0,28.0,30.51,WSW,240,4.0,8.0,66,0.00,,,0.01,,2013-01-27 19:32:00,
2013-01-27 14:42:00,38.0,28.0,30.51,WSW,240,4.0,8.0,66,0.00,,,0.01,,2013-01-27 19:42:00,
2013-01-27 14:52:00,37.0,26.0,30.50,SSW,210,4.0,7.0,64,0.00,,,0.01,,2013-01-27 19:52:00,
2013-01-27 15:02:00,38.0,27.0,30.49,SSE,164,2.0,7.0,63,0.00,,,0.01,,2013-01-27 20:02:00,
2013-01-27 15:12:00,38.0,27.0,30.49,SSE,164,2.0,7.0,63,0.00,,,0.01,,2013-01-27 20:12:00,
2013-01-27 15:22:00,39.0,27.0,30.49,SW,234,6.0,10.0,63,0.00,,,0.01,,2013-01-27 20:22:00,
2013-01-27 15:33:00,38.0,27.0,30.48,SW,227,3.0,4.0,63,0.00,,,0.01,,2013-01-27 20:33:00,
2013-01-27 15:42:00,38.0,27.0,30.48,SW,227,3.0,4.0,63,0.00,,,0.01,,2013-01-27 20:42:00,
2013-01-27 15:52:00,38.0,27.0,30.49,SW,222,2.0,6.0,63,0.00,,,0.01,,2013-01-27 20:52:00,
2013-01-27 16:02:00,37.0,25.0,30.49,SSE,148,2.0,6.0,62,0.00,,,0.01,,2013-01-27 21:02:00,
2013-01-27 16:12:00,37.0,25.0,30.49,SSE,148,2.0,6.0,62,0.00,,,0.01,,2013-01-27 21:12:00,
2013-01-27 16:22:00,37.0,26.0,30.49,South,169,2.0,4.0,63,0.00,,,0.01,,2013-01-27 21:22:00,
2013-01-27 16:33:00,37.0,26.0,30.49,SSE,156,2.0,4.0,63,0.00,,,0.01,,2013-01-27 21:33:00,
2013-01-27 16:42:00,37.0,26.0,30.49,SSE,156,2.0,4.0,63,0.00,,,0.01,,2013-01-27 21:42:00,
2013-01-27 16:52:00,37.0,26.0,30.49,SSW,210,1.0,3.0,64,0.00,,,0.01,,2013-01-27 21:52:00,
2013-01-27 17:03:00,37.0,26.0,30.50,SSW,201,2.0,4.0,63,0.00,,,0.01,,2013-01-27 22:03:00,
2013-01-27 17:12:00,37.0,26.0,30.50,SSW,201,2.0,4.0,63,0.00,,,0.01,,2013-01-27 22:12:00,
2013-01-27 17:22:00,37.0,26.0,30.50,South,169,2.0,3.0,64,0.00,,,0.01,,2013-01-27 22:22:00,
2013-01-27 17:32:00,37.0,26.0,30.50,South,178,1.0,2.0,65,0.00,,,0.01,,2013-01-27 22:32:00,
2013-01-27 17:42:00,37.0,26.0,30.50,South,178,1.0,2.0,65,0.00,,,0.01,,2013-01-27 22:42:00,
2013-01-27 17:52:00,37.0,26.0,30.50,South,170,0.0,1.0,65,0.00,,,0.01,,2013-01-27 22:52:00,
2013-01-27 18:02:00,37.0,26.0,30.50,South,170,0.0,1.0,65,0.00,,,0.01,,2013-01-27 23:02:00,
2013-01-27 18:12:00,37.0,26.0,30.50,South,170,0.0,1.0,65,0.00,,,0.01,,2013-01-27 23:12:00,
2013-01-27 18:22:00,36.0,26.0,30.50,South,170,0.0,0.0,66,0.00,,,0.01,,2013-01-27 23:22:00,
2013-01-27 18:32:00,36.0,28.0,30.51,South,170,0.0,1.0,71,0.00,,,0.01,,2013-01-27 23:32:00,
2013-01-27 18:42:00,36.0,28.0,30.51,South,170,0.0,1.0,71,0.00,,,0.01,,2013-01-27 23:42:00,
2013-01-27 18:52:00,35.0,26.0,30.50,South,180,1.0,2.0,70,0.00,,,0.01,,2013-01-27 23:52:00,
2013-01-27 19:02:00,35.0,26.0,30.50,South,180,0.0,1.0,70,0.00,,,0.01,,2013-01-28 00:02:00,
2013-01-27 19:12:00,35.0,26.0,30.50,South,180,0.0,1.0,70,0.00,,,0.01,,2013-01-28 00:12:00,
2013-01-27 19:21:00,35.0,27.0,30.50,South,180,0.0,0.0,71,0.00,,,0.01,,2013-01-28 00:21:00,
2013-01-27 19:32:00,35.0,28.0,30.50,South,180,0.0,0.0,75,0.00,,,0.01,,2013-01-28 00:32:00,
2013-01-27 19:42:00,35.0,28.0,30.50,South,180,0.0,0.0,75,0.00,,,0.01,,2013-01-28 00:42:00,
2013-01-27 19:52:00,34.0,26.0,30.50,South,180,0.0,0.0,73,0.00,,,0.01,,2013-01-28 00:52:00,
2013-01-27 20:02:00,35.0,28.0,30.50,SSE,163,0.0,0.0,75,0.00,,,0.01,,2013-01-28 01:02:00,
2013-01-27 20:11:00,35.0,28.0,30.50,SSE,163,0.0,0.0,75,0.00,,,0.01,,2013-01-28 01:11:00,
2013-01-27 20:22:00,34.0,27.0,30.50,SSE,163,0.0,0.0,74,0.00,,,0.01,,2013-01-28 01:22:00,
2013-01-27 20:33:00,34.0,28.0,30.50,SSE,163,0.0,0.0,77,0.00,,,0.01,,2013-01-28 01:33:00,
2013-01-27 20:42:00,34.0,28.0,30.50,SSE,163,0.0,0.0,77,0.00,,,0.01,,2013-01-28 01:42:00,
2013-01-27 20:52:00,34.0,28.0,30.50,SSE,163,0.0,0.0,77,0.00,,,0.01,,2013-01-28 01:52:00,
2013-01-27 21:02:00,33.0,27.0,30.50,SSE,163,0.0,0.0,79,0.00,,,0.01,,2013-01-28 02:02:00,
2013-01-27 21:11:00,33.0,27.0,30.50,SSE,163,0.0,0.0,79,0.00,,,0.01,,2013-01-28 02:11:00,
2013-01-27 21:22:00,33.0,27.0,30.50,SSE,163,0.0,0.0,79,0.00,,,0.01,,2013-01-28 02:22:00,
2013-01-27 21:32:00,33.0,27.0,30.49,SSE,163,0.0,0.0,78,0.00,,,0.01,,2013-01-28 02:32:00,
2013-01-27 21:42:00,33.0,27.0,30.49,SSE,163,0.0,0.0,78,0.00,,,0.01,,2013-01-28 02:42:00,
2013-01-27 21:53:00,33.0,27.0,30.48,SSW,194,1.0,3.0,78,0.00,,,0.01,,2013-01-28 02:53:00,
2013-01-27 22:02:00,33.0,26.0,30.48,South,190,1.0,2.0,76,0.00,,,0.01,,2013-01-28 03:02:00,
2013-01-27 22:12:00,33.0,26.0,30.48,South,190,1.0,2.0,76,0.00,,,0.01,,2013-01-28 03:12:00,
2013-01-27 22:22:00,33.0,26.0,30.47,SSW,192,1.0,1.0,76,0.00,,,0.01,,2013-01-28 03:22:00,
2013-01-27 22:32:00,33.0,26.0,30.47,South,188,0.0,1.0,75,0.00,,,0.01,,2013-01-28 03:32:00,
2013-01-27 22:42:00,33.0,26.0,30.47,South,188,0.0,1.0,75,0.00,,,0.01,,2013-01-28 03:42:00,
2013-01-27 22:53:00,33.0,27.0,30.48,South,188,0.0,0.0,78,0.00,,,0.01,,2013-01-28 03:53:00,
2013-01-27 23:02:00,33.0,27.0,30.47,South,188,0.0,0.0,78,0.00,,,0.01,,2013-01-28 04:02:00,
2013-01-27 23:12:00,33.0,27.0,30.47,South,188,0.0,0.0,78,0.00,,,0.01,,2013-01-28 04:12:00,
2013-01-27 23:22:00,33.0,27.0,30.47,South,182,1.0,2.0,78,0.00,,,0.01,,2013-01-28 04:22:00,
2013-01-27 23:32:00,33.0,28.0,30.47,South,182,0.0,0.0,81,0.00,,,0.01,,2013-01-28 04:32:00,
2013-01-27 23:42:00,33.0,28.0,30.47,South,182,0.0,0.0,81,0.00,,,0.01,,2013-01-28 04:42:00,
2013-01-27 23:52:00,33.0,27.0,30.47,South,182,1.0,2.0,79,0.00,,,0.01,,2013-01-28 04:52:00,